createdAt,value
2022-10-23T13:44:37.456Z,100585.28
2022-10-23T13:47:04.832Z,100573.78
2022-10-23T13:49:31.795Z,100570.94
2022-10-23T13:51:58.536Z,100545.78
2022-10-23T13:54:29.394Z,100550.66
2022-10-23T13:56:56.988Z,100555.91
2022-10-23T13:59:24.140Z,100553.16
2022-10-23T14:01:51.902Z,100559.13
2022-10-23T14:04:19.320Z,100549.50
2022-10-23T14:06:47.520Z,100558.09
2022-10-23T14:09:16.985Z,100552.69
2022-10-23T14:11:43.973Z,100550.91
2022-10-23T14:14:10.972Z,100554.34
2022-10-23T14:16:37.902Z,100542.09
2022-10-23T14:19:04.851Z,100557.69
2022-10-23T14:21:31.679Z,100542.78
2022-10-23T14:23:58.301Z,100553.28
2022-10-23T14:26:30.499Z,100550.56
2022-10-23T14:29:02.921Z,100547.06
2022-10-23T14:31:34.432Z,100540.09
2022-10-23T14:34:01.891Z,100549.59
2022-10-23T14:36:38.432Z,100541.81
2022-10-23T14:39:16.780Z,100535.03
2022-10-23T14:41:43.730Z,100541.25
2022-10-23T14:44:11.983Z,100538.94
2022-10-23T14:46:38.745Z,100526.81
2022-10-23T14:49:06.188Z,100526.97
2022-10-23T14:51:33.043Z,100496.91
2022-10-23T14:54:04.909Z,100531.34
2022-10-23T14:56:37.725Z,100521.88
2022-10-23T14:59:04.859Z,100522.88
2022-10-23T15:01:51.009Z,100530.06
2022-10-23T15:04:17.794Z,100517.84
2022-10-23T15:06:45.205Z,100511.81
2022-10-23T15:09:11.947Z,100516.09
2022-10-23T15:11:38.919Z,100507.44
2022-10-23T15:14:05.576Z,100515.31
2022-10-23T15:16:32.885Z,100510.97
2022-10-23T15:18:59.550Z,100486.69
2022-10-23T15:21:26.182Z,100505.56
2022-10-23T15:23:54.908Z,100500.31
2022-10-23T15:26:23.531Z,100499.34
2022-10-23T15:28:59.371Z,100506.13
2022-10-23T15:31:38.015Z,100509.53
2022-10-23T15:34:11.241Z,100501.59
2022-10-23T15:36:38.040Z,100493.72
2022-10-23T15:39:09.916Z,100506.78
2022-10-23T15:41:38.661Z,100505.94
2022-10-23T15:44:07.796Z,100503.25
2022-10-23T15:46:35.101Z,100492.75
2022-10-23T15:49:01.923Z,100502.25
2022-10-23T15:51:28.827Z,100486.56
2022-10-23T15:53:57.121Z,100483.00
2022-10-23T15:56:24.957Z,100475.22
2022-10-23T15:58:52.072Z,100487.38
2022-10-23T16:01:19.148Z,100476.06
2022-10-23T16:03:46.197Z,100473.38
2022-10-23T16:06:15.849Z,100464.66
2022-10-23T16:08:44.005Z,100465.50
2022-10-23T16:11:32.331Z,100451.53
2022-10-23T16:13:59.871Z,100466.31
2022-10-23T16:16:28.308Z,100458.53
2022-10-23T16:18:55.450Z,100471.53
2022-10-23T16:21:25.200Z,100461.09
2022-10-23T16:23:53.183Z,100453.31
2022-10-23T16:26:25.011Z,100448.88
2022-10-23T16:29:03.774Z,100452.38
2022-10-23T16:31:34.768Z,100448.94
2022-10-23T16:34:03.247Z,100449.03
2022-10-23T16:36:30.036Z,100445.59
2022-10-23T16:38:58.608Z,100439.41
2022-10-23T16:41:25.257Z,100428.00
2022-10-23T16:43:52.755Z,100429.78
2022-10-23T16:46:21.568Z,100422.88
2022-10-23T16:48:50.319Z,100423.00
2022-10-23T16:51:20.454Z,100432.59
2022-10-23T16:53:48.562Z,100431.66
2022-10-23T16:56:18.210Z,100425.56
2022-10-23T16:58:45.481Z,100424.72
2022-10-23T17:01:16.647Z,100422.94
2022-10-23T17:03:48.269Z,100422.94
2022-10-23T17:06:21.968Z,100414.41
2022-10-23T17:08:48.961Z,100404.75
2022-10-23T17:11:31.672Z,100406.53
2022-10-23T17:14:04.126Z,100408.22
2022-10-23T17:16:52.119Z,100412.50
2022-10-23T17:22:10.917Z,100405.59
2022-10-23T17:24:39.513Z,100404.72
2022-10-23T17:27:06.452Z,100394.41
2022-10-23T17:29:33.194Z,100400.38
2022-10-23T17:31:59.948Z,100399.38
2022-10-23T17:34:26.953Z,100394.22
2022-10-23T17:36:55.262Z,100401.16
2022-10-23T17:39:26.619Z,100389.94
2022-10-23T17:41:54.032Z,100397.66
2022-10-23T17:44:21.117Z,100396.78
2022-10-23T17:46:53.630Z,100398.56
2022-10-23T17:49:21.508Z,100383.75
2022-10-23T17:51:52.457Z,100381.94
2022-10-23T17:54:19.040Z,100382.78
2022-10-23T17:56:46.468Z,100377.53
2022-10-23T17:59:16.212Z,100361.19
2022-10-23T18:01:44.048Z,100377.53
2022-10-23T18:04:10.808Z,100378.38
2022-10-23T18:06:47.416Z,100375.75
2022-10-23T18:09:14.798Z,100369.81
2022-10-23T18:11:45.555Z,100365.38
2022-10-23T18:14:15.375Z,100366.22
2022-10-23T18:16:42.664Z,100357.50
2022-10-23T18:19:09.337Z,100363.63
2022-10-23T18:21:38.051Z,100349.66
2022-10-23T18:24:05.040Z,100350.53
2022-10-23T18:26:35.015Z,100351.38
2022-10-23T18:29:04.479Z,100350.53
2022-10-23T18:31:31.177Z,100342.66
2022-10-23T18:34:01.506Z,100356.63
2022-10-23T18:36:30.594Z,100335.75
2022-10-23T18:38:57.325Z,100340.09
2022-10-23T18:41:24.424Z,100340.03
2022-10-23T18:43:53.982Z,100336.56
2022-10-23T18:46:21.258Z,100329.66
2022-10-23T18:48:50.914Z,100333.09
2022-10-23T18:51:23.692Z,100329.66
2022-10-23T18:53:50.885Z,100332.31
2022-10-23T18:56:23.016Z,100327.34
2022-10-23T18:58:58.311Z,100323.13
2022-10-23T19:01:27.214Z,100319.69
2022-10-23T19:06:27.660Z,100310.31
2022-10-23T19:08:54.523Z,100306.06
2022-10-23T19:11:23.788Z,100300.03
2022-10-23T19:13:51.454Z,100296.66
2022-10-23T19:16:22.934Z,100301.94
2022-10-23T19:18:53.937Z,100307.09
2022-10-23T19:21:26.487Z,100287.03
2022-10-23T19:23:53.207Z,100271.50
2022-10-23T19:26:19.920Z,100284.47
2022-10-23T19:28:49.169Z,100266.28
2022-10-23T19:31:16.207Z,100289.59
2022-10-23T19:33:42.989Z,100282.59
2022-10-23T19:36:13.862Z,100272.16
2022-10-23T19:38:41.825Z,100272.09
2022-10-23T19:41:08.978Z,100267.75
2022-10-23T19:43:37.751Z,100259.97
2022-10-23T19:46:09.361Z,100257.34
2022-10-23T19:48:43.325Z,100258.13
2022-10-23T19:51:10.249Z,100252.13
2022-10-23T19:53:36.981Z,100251.38
2022-10-23T19:56:09.019Z,100237.41
2022-10-23T19:58:35.638Z,100237.50
2022-10-23T20:01:11.439Z,100239.28
2022-10-23T20:03:39.706Z,100230.59
2022-10-23T20:06:12.429Z,100229.72
2022-10-23T20:08:41.242Z,100235.81
2022-10-23T20:11:09.686Z,100228.91
2022-10-23T20:13:36.727Z,100225.50
2022-10-23T20:16:03.613Z,100216.94
2022-10-23T20:18:30.181Z,100219.47
2022-10-23T20:20:56.834Z,100171.22
2022-10-23T20:23:24.256Z,100191.91
2022-10-23T20:25:50.832Z,100210.72
2022-10-23T20:28:17.476Z,100203.81
2022-10-23T20:30:46.832Z,100204.72
2022-10-23T20:33:13.452Z,100205.59
2022-10-23T20:35:43.532Z,100174.56
2022-10-23T20:38:10.375Z,100197.13
2022-10-23T20:40:37.307Z,100191.28
2022-10-23T20:43:05.668Z,100193.03
2022-10-23T20:45:32.419Z,100178.34
2022-10-23T20:47:59.054Z,100169.81
2022-10-23T20:50:25.788Z,100172.38
2022-10-23T20:52:52.440Z,100166.28
2022-10-23T20:55:24.811Z,100166.19
2022-10-23T20:57:51.379Z,100152.50
2022-10-23T21:00:18.122Z,100166.28
2022-10-23T21:02:47.188Z,100162.75
2022-10-23T21:05:16.577Z,100153.19
2022-10-23T21:07:44.952Z,100158.31
2022-10-23T21:10:11.518Z,100146.03
2022-10-23T21:12:38.101Z,100145.13
2022-10-23T21:15:05.152Z,100139.97
2022-10-23T21:17:35.960Z,100138.13
2022-10-23T21:20:02.930Z,100131.16
2022-10-23T21:22:29.612Z,100134.63
2022-10-23T21:24:57.062Z,100132.00
2022-10-23T21:27:23.732Z,100118.94
2022-10-23T21:29:51.098Z,100112.88
2022-10-23T21:32:19.104Z,100105.97
2022-10-23T21:34:45.696Z,100109.31
2022-10-23T21:37:14.526Z,100102.28
2022-10-23T21:39:43.348Z,100087.59
2022-10-23T21:42:14.519Z,100093.44
2022-10-23T21:44:41.628Z,100097.84
2022-10-23T21:47:08.292Z,100074.41
2022-10-23T21:49:35.077Z,100084.81
2022-10-23T21:52:01.763Z,100076.03
2022-10-23T21:54:28.331Z,100055.41
2022-10-23T21:56:54.991Z,100079.44
2022-10-23T21:59:25.255Z,100066.38
2022-10-23T22:01:53.494Z,100065.56
2022-10-23T22:04:20.712Z,100052.34
2022-10-23T22:06:49.741Z,100057.59
2022-10-23T22:09:19.608Z,100047.16
2022-10-23T22:11:47.749Z,100050.56
2022-10-23T22:14:14.473Z,100038.44
2022-10-23T22:16:42.282Z,100042.66
2022-10-23T22:19:12.644Z,100027.06
2022-10-23T22:21:40.028Z,100023.75
2022-10-23T22:24:07.336Z,100040.84
2022-10-23T22:26:37.634Z,100044.44
2022-10-23T22:29:07.141Z,100022.50
2022-10-23T22:31:35.438Z,100022.59
2022-10-23T22:34:13.262Z,100026.91
2022-10-23T22:36:51.026Z,100005.41
2022-10-23T22:39:17.900Z,100011.22
2022-10-23T22:41:44.746Z,100010.34
2022-10-23T22:44:12.451Z,100009.38
2022-10-23T22:46:39.689Z,99999.00
2022-10-23T22:49:06.712Z,99997.31
2022-10-23T22:51:34.094Z,99996.47
2022-10-23T22:54:00.905Z,99987.66
2022-10-23T22:56:30.132Z,99984.16
2022-10-23T22:58:57.256Z,99985.00
2022-10-23T23:01:47.677Z,99985.94
2022-10-23T23:07:08.599Z,99974.69
2022-10-23T23:09:39.571Z,99963.41
2022-10-23T23:12:07.578Z,99962.47
2022-10-23T23:14:34.705Z,99958.16
2022-10-23T23:17:01.423Z,99952.88
2022-10-23T23:19:28.615Z,99952.84
2022-10-23T23:21:57.759Z,99944.13
2022-10-23T23:24:24.963Z,99946.66
2022-10-23T23:26:51.787Z,99942.25
2022-10-23T23:29:20.759Z,99943.22
2022-10-23T23:31:47.554Z,99945.81
2022-10-23T23:34:14.244Z,99939.78
2022-10-23T23:36:41.767Z,99934.50
2022-10-23T23:39:08.553Z,99934.53
2022-10-23T23:41:35.285Z,99900.84
2022-10-23T23:44:02.147Z,99918.72
2022-10-23T23:46:28.908Z,99917.81
2022-10-23T23:48:55.654Z,99909.00
2022-10-23T23:51:25.217Z,99887.44
2022-10-23T23:53:52.817Z,99907.25
2022-10-23T23:56:19.932Z,99905.53
2022-10-23T23:58:46.953Z,99897.63
